BAW963C EDDH-EGLL
Flight info
| Callsign | BAW963C |
|---|---|
| Flight time | N/A |
| Altitude | 36000 |
| Route | WSN5C WSN N125 ITMIZ DCT ABNED L980 LOGAN LOGAN2H |
| Aircraft | A320/M-SDE3FGHIRWY/LB1 |
Departure
| Time | 2026-05-06 12:12 |
|---|---|
| Airport | Hamburg Helmut Schmidt Airport (EDDH) |
Arrival
| Time | N/A |
|---|---|
| Airport | London Heathrow Airport (EGLL) |
| Time | Latitude | Longitude | Altitude | Speed | Heading |
|---|---|---|---|---|---|
| 2026-05-06 10:30 | 53.62437 | 10.00477 | 49 ft | 0 kts | 243° |
| 2026-05-06 12:00 | 53.62437 | 10.00478 | 49 ft | 1 kts | 243° |
| 2026-05-06 12:00 | 53.62444 | 10.00500 | 49 ft | 2 kts | 244° |
| 2026-05-06 12:00 | 53.62447 | 10.00525 | 49 ft | 2 kts | 275° |
| 2026-05-06 12:01 | 53.62443 | 10.00550 | 49 ft | 2 kts | 300° |
| 2026-05-06 12:01 | 53.62433 | 10.00569 | 49 ft | 2 kts | 325° |
| 2026-05-06 12:01 | 53.62427 | 10.00575 | 49 ft | 1 kts | 336° |
| 2026-05-06 12:01 | 53.62424 | 10.00578 | 49 ft | 0 kts | 333° |
| 2026-05-06 12:03 | 53.62426 | 10.00575 | 49 ft | 4 kts | 333° |
| 2026-05-06 12:03 | 53.62523 | 10.00492 | 47 ft | 18 kts | 333° |
| 2026-05-06 12:03 | 53.62606 | 10.00370 | 45 ft | 16 kts | 266° |
| 2026-05-06 12:04 | 53.62634 | 10.00252 | 43 ft | 12 kts | 335° |
| 2026-05-06 12:04 | 53.62722 | 10.00176 | 40 ft | 15 kts | 333° |
| 2026-05-06 12:04 | 53.62825 | 10.00074 | 36 ft | 16 kts | 306° |
| 2026-05-06 12:04 | 53.62804 | 9.99962 | 35 ft | 11 kts | 210° |
| 2026-05-06 12:05 | 53.62743 | 9.99905 | 36 ft | 8 kts | 208° |
| 2026-05-06 12:05 | 53.62690 | 9.99856 | 37 ft | 8 kts | 208° |
| 2026-05-06 12:05 | 53.62643 | 9.99789 | 39 ft | 8 kts | 248° |
| 2026-05-06 12:05 | 53.62626 | 9.99643 | 40 ft | 22 kts | 258° |
| 2026-05-06 12:06 | 53.62593 | 9.99364 | 41 ft | 24 kts | 259° |
| 2026-05-06 12:06 | 53.62564 | 9.99103 | 45 ft | 21 kts | 258° |
| 2026-05-06 12:06 | 53.62535 | 9.98847 | 43 ft | 22 kts | 259° |
| 2026-05-06 12:06 | 53.62505 | 9.98585 | 40 ft | 23 kts | 260° |
| 2026-05-06 12:07 | 53.62473 | 9.98309 | 38 ft | 23 kts | 260° |
| 2026-05-06 12:07 | 53.62416 | 9.98066 | 36 ft | 22 kts | 235° |
| 2026-05-06 12:07 | 53.62313 | 9.97854 | 33 ft | 23 kts | 229° |
| 2026-05-06 12:07 | 53.62207 | 9.97639 | 31 ft | 24 kts | 230° |
| 2026-05-06 12:08 | 53.62099 | 9.97420 | 29 ft | 24 kts | 230° |
| 2026-05-06 12:08 | 53.61996 | 9.97212 | 31 ft | 22 kts | 230° |
| 2026-05-06 12:08 | 53.61896 | 9.97010 | 31 ft | 22 kts | 230° |
| 2026-05-06 12:08 | 53.61797 | 9.96809 | 31 ft | 22 kts | 230° |
| 2026-05-06 12:09 | 53.61717 | 9.96649 | 32 ft | 10 kts | 230° |
| 2026-05-06 12:09 | 53.61673 | 9.96551 | 31 ft | 11 kts | 245° |
| 2026-05-06 12:09 | 53.61681 | 9.96451 | 33 ft | 5 kts | 307° |
| 2026-05-06 12:09 | 53.61709 | 9.96420 | 34 ft | 0 kts | 345° |
| 2026-05-06 12:10 | 53.61717 | 9.96417 | 34 ft | 7 kts | 349° |
| 2026-05-06 12:10 | 53.61776 | 9.96421 | 35 ft | 8 kts | 8° |
| 2026-05-06 12:11 | 53.61859 | 9.96455 | 36 ft | 13 kts | 31° |
| 2026-05-06 12:11 | 53.61918 | 9.96561 | 34 ft | 10 kts | 49° |
| 2026-05-06 12:11 | 53.61930 | 9.96586 | 33 ft | 0 kts | 51° |
| 2026-05-06 12:11 | 53.61935 | 9.96594 | 33 ft | 1 kts | 51° |
| 2026-05-06 12:12 | 53.62038 | 9.96805 | 32 ft | 57 kts | 50° |
| 2026-05-06 12:12 | 53.62443 | 9.97622 | 28 ft | 120 kts | 50° |
| 2026-05-06 12:12 | 53.63099 | 9.98926 | 162 ft | 166 kts | 50° |
| 2026-05-06 12:12 | 53.63887 | 10.00521 | 717 ft | 183 kts | 50° |
| 2026-05-06 12:13 | 53.64717 | 10.02220 | 1529 ft | 196 kts | 51° |
| 2026-05-06 12:13 | 53.65580 | 10.04029 | 2358 ft | 203 kts | 51° |
| 2026-05-06 12:13 | 53.66444 | 10.05818 | 3280 ft | 199 kts | 51° |
| 2026-05-06 12:13 | 53.67323 | 10.07585 | 4118 ft | 199 kts | 51° |
| 2026-05-06 12:14 | 53.68279 | 10.09269 | 4817 ft | 206 kts | 35° |
| 2026-05-06 12:14 | 53.69632 | 10.10097 | 5510 ft | 216 kts | 6° |
| 2026-05-06 12:14 | 53.71154 | 10.09677 | 6100 ft | 234 kts | 338° |
| 2026-05-06 12:14 | 53.72437 | 10.07848 | 6548 ft | 259 kts | 305° |
| 2026-05-06 12:15 | 53.73296 | 10.05010 | 7030 ft | 278 kts | 297° |
| 2026-05-06 12:15 | 53.74148 | 10.02039 | 7690 ft | 287 kts | 298° |
| 2026-05-06 12:15 | 53.74942 | 9.98925 | 8536 ft | 290 kts | 284° |
| 2026-05-06 12:15 | 53.74915 | 9.95594 | 9328 ft | 293 kts | 253° |
| 2026-05-06 12:16 | 53.74140 | 9.92443 | 10137 ft | 293 kts | 246° |
| 2026-05-06 12:16 | 53.73290 | 9.89282 | 10629 ft | 305 kts | 246° |
| 2026-05-06 12:16 | 53.72410 | 9.85935 | 11135 ft | 315 kts | 246° |
| 2026-05-06 12:16 | 53.71536 | 9.82558 | 11818 ft | 317 kts | 247° |
| 2026-05-06 12:17 | 53.70659 | 9.79139 | 12496 ft | 320 kts | 248° |
| 2026-05-06 12:17 | 53.69787 | 9.75717 | 13125 ft | 323 kts | 248° |
| 2026-05-06 12:17 | 53.68892 | 9.72204 | 13766 ft | 325 kts | 248° |
| 2026-05-06 12:17 | 53.68010 | 9.68735 | 14369 ft | 328 kts | 248° |
| 2026-05-06 12:18 | 53.67111 | 9.65199 | 14986 ft | 331 kts | 247° |
| 2026-05-06 12:18 | 53.66195 | 9.61613 | 15630 ft | 332 kts | 245° |
| 2026-05-06 12:18 | 53.65156 | 9.58122 | 16264 ft | 332 kts | 240° |
| 2026-05-06 12:18 | 53.63935 | 9.54845 | 16896 ft | 332 kts | 234° |
| 2026-05-06 12:19 | 53.62594 | 9.51683 | 17459 ft | 334 kts | 233° |
| 2026-05-06 12:19 | 53.61236 | 9.48523 | 18018 ft | 336 kts | 232° |
| 2026-05-06 12:19 | 53.59862 | 9.45334 | 18561 ft | 338 kts | 233° |
| 2026-05-06 12:19 | 53.58495 | 9.42164 | 19075 ft | 340 kts | 233° |
| 2026-05-06 12:20 | 53.57101 | 9.38933 | 19606 ft | 342 kts | 233° |
| 2026-05-06 12:20 | 53.55693 | 9.35668 | 20116 ft | 345 kts | 233° |
| 2026-05-06 12:20 | 53.54289 | 9.32418 | 20610 ft | 348 kts | 232° |
| 2026-05-06 12:20 | 53.52871 | 9.29134 | 21072 ft | 351 kts | 233° |
| 2026-05-06 12:21 | 53.51434 | 9.25806 | 21544 ft | 353 kts | 232° |
| 2026-05-06 12:21 | 53.49994 | 9.22481 | 22021 ft | 355 kts | 232° |
| 2026-05-06 12:21 | 53.48523 | 9.19093 | 22472 ft | 357 kts | 233° |
| 2026-05-06 12:21 | 53.47079 | 9.15762 | 22901 ft | 360 kts | 233° |
| 2026-05-06 12:22 | 53.45589 | 9.12335 | 23310 ft | 363 kts | 233° |
| 2026-05-06 12:22 | 53.44110 | 9.08937 | 23711 ft | 366 kts | 233° |
| 2026-05-06 12:22 | 53.42595 | 9.05462 | 24121 ft | 368 kts | 232° |
| 2026-05-06 12:22 | 53.41078 | 9.01985 | 24548 ft | 371 kts | 232° |
| 2026-05-06 12:23 | 53.39568 | 8.98533 | 24931 ft | 373 kts | 232° |
| 2026-05-06 12:23 | 53.38031 | 8.95026 | 25331 ft | 376 kts | 232° |
| 2026-05-06 12:23 | 53.36474 | 8.91453 | 25727 ft | 379 kts | 234° |
| 2026-05-06 12:23 | 53.35083 | 8.87728 | 26111 ft | 382 kts | 240° |
| 2026-05-06 12:24 | 53.33911 | 8.83733 | 26478 ft | 386 kts | 246° |
| 2026-05-06 12:24 | 53.32942 | 8.79551 | 26852 ft | 390 kts | 248° |
| 2026-05-06 12:24 | 53.32012 | 8.75309 | 27244 ft | 391 kts | 248° |
| 2026-05-06 12:24 | 53.31073 | 8.71022 | 27626 ft | 393 kts | 248° |
| 2026-05-06 12:25 | 53.30120 | 8.66700 | 27978 ft | 396 kts | 248° |
| 2026-05-06 12:25 | 53.29171 | 8.62384 | 28313 ft | 398 kts | 249° |
| 2026-05-06 12:25 | 53.28223 | 8.58045 | 28646 ft | 401 kts | 249° |
| 2026-05-06 12:25 | 53.27275 | 8.53718 | 28976 ft | 403 kts | 249° |
| 2026-05-06 12:26 | 53.26283 | 8.49294 | 29292 ft | 405 kts | 248° |
| 2026-05-06 12:26 | 53.25262 | 8.44956 | 29628 ft | 407 kts | 247° |
| 2026-05-06 12:26 | 53.24227 | 8.40607 | 29940 ft | 409 kts | 248° |
| 2026-05-06 12:26 | 53.23172 | 8.36180 | 30237 ft | 411 kts | 247° |
| 2026-05-06 12:27 | 53.22107 | 8.31698 | 30533 ft | 412 kts | 247° |
| 2026-05-06 12:27 | 53.21034 | 8.27196 | 30859 ft | 414 kts | 246° |
| 2026-05-06 12:27 | 53.19974 | 8.22744 | 31145 ft | 415 kts | 246° |
| 2026-05-06 12:27 | 53.18902 | 8.18249 | 31402 ft | 417 kts | 246° |
| 2026-05-06 12:28 | 53.17822 | 8.13737 | 31654 ft | 419 kts | 246° |